Time;durP1;ratioP1;P1;durP2;ratioP2;P2;SDS_P1;SDS_P2;PMS_P1;PMS_P2;Temp;Humidity;BMP_temperature;BMP_pressure;BME280_temperature;BME280_humidity;BME280_pressure;Samples;Min_cycle;Max_cycle;Signal;HPM_P1;HPM_P2
2023/06/07 00:02:21;;;;;;;15.00;6.83;;;;;;;;;;5094057;28;20233;-69
2023/06/07 00:04:48;;;;;;;13.60;6.87;;;;;;;;;;5075952;28;20188;-68
2023/06/07 00:07:14;;;;;;;12.53;6.70;;;;;;;;;;5093919;28;20173;-69
2023/06/07 00:09:40;;;;;;;12.03;7.37;;;;;;;;;;5075965;28;20534;-69
2023/06/07 00:12:06;;;;;;;13.47;6.87;;;;;;;;;;5075840;28;20288;-69
2023/06/07 00:14:32;;;;;;;14.57;7.00;;;;;;;;;;5075686;28;20643;-69
2023/06/07 00:16:58;;;;;;;8.10;6.50;;;;;;;;;;5094223;28;20192;-69
2023/06/07 00:19:27;;;;;;;14.47;6.70;;;;;;;;;;5093789;28;20181;-68
2023/06/07 00:21:53;;;;;;;15.97;7.60;;;;;;;;;;5093954;28;20258;-68
2023/06/07 00:24:19;;;;;;;13.13;7.40;;;;;;;;;;5093757;28;20659;-68
2023/06/07 00:26:45;;;;;;;12.23;7.10;;;;;;;;;;5093784;28;20173;-68
2023/06/07 00:29:12;;;;;;;12.23;7.57;;;;;;;;;;5074975;28;20634;-69
2023/06/07 00:31:38;;;;;;;13.30;7.40;;;;;;;;;;5075939;28;20216;-68
2023/06/07 00:34:04;;;;;;;13.10;7.43;;;;;;;;;;5091063;28;20184;-69
2023/06/07 00:36:30;;;;;;;11.83;7.47;;;;;;;;;;5114602;28;20177;-69
2023/06/07 00:38:56;;;;;;;18.63;7.40;;;;;;;;;;5113522;28;20173;-69
2023/06/07 00:41:22;;;;;;;13.93;8.13;;;;;;;;;;5092369;28;20226;-69
2023/06/07 00:43:49;;;;;;;10.60;6.90;;;;;;;;;;5093003;28;20196;-69
2023/06/07 00:46:16;;;;;;;15.90;6.83;;;;;;;;;;5111049;28;20226;-69
2023/06/07 00:48:42;;;;;;;10.87;6.43;;;;;;;;;;5110210;28;20197;-68
2023/06/07 00:51:08;;;;;;;13.73;7.13;;;;;;;;;;5095939;28;20181;-68
2023/06/07 00:53:35;;;;;;;13.67;6.93;;;;;;;;;;5093459;28;20662;-68
2023/06/07 00:56:01;;;;;;;13.57;7.23;;;;;;;;;;5093412;28;20260;-68
2023/06/07 00:58:27;;;;;;;12.60;6.90;;;;;;;;;;5093879;28;20708;-68
2023/06/07 01:00:53;;;;;;;14.27;7.13;;;;;;;;;;5093232;28;20205;-68
2023/06/07 01:03:21;;;;;;;12.37;7.30;;;;;;;;;;5093209;28;20220;-68
2023/06/07 01:05:48;;;;;;;18.37;7.40;;;;;;;;;;5093367;28;20173;-68
2023/06/07 01:08:14;;;;;;;10.37;6.83;;;;;;;;;;5093225;28;20192;-68
2023/06/07 01:10:40;;;;;;;10.50;7.00;;;;;;;;;;5075091;28;20643;-68
2023/06/07 01:13:07;;;;;;;13.97;6.93;;;;;;;;;;5075501;28;20617;-68
2023/06/07 01:15:33;;;;;;;17.07;7.60;;;;;;;;;;5074901;28;20181;-68
2023/06/07 01:18:01;;;;;;;13.03;7.20;;;;;;;;;;5093313;28;20181;-68
2023/06/07 01:20:27;;;;;;;15.30;8.00;;;;;;;;;;5093351;28;20196;-68
2023/06/07 01:22:58;;;;;;;12.73;7.33;;;;;;;;;;5092938;28;20235;-68
2023/06/07 01:25:24;;;;;;;15.43;7.90;;;;;;;;;;5074959;28;20596;-68
2023/06/07 01:27:52;;;;;;;13.73;7.83;;;;;;;;;;5075111;28;20664;-69
2023/06/07 01:30:20;;;;;;;11.07;8.00;;;;;;;;;;5074853;28;20275;-68
2023/06/07 01:32:46;;;;;;;15.47;8.63;;;;;;;;;;5074733;28;20201;-68
2023/06/07 01:35:13;;;;;;;14.53;9.37;;;;;;;;;;5093137;28;20260;-68
2023/06/07 01:37:39;;;;;;;19.20;10.37;;;;;;;;;;5092766;28;20568;-68
2023/06/07 01:40:07;;;;;;;17.80;10.50;;;;;;;;;;5093666;28;20201;-69
2023/06/07 01:42:34;;;;;;;20.17;9.60;;;;;;;;;;5096569;28;20227;-68
2023/06/07 01:45:01;;;;;;;15.83;9.33;;;;;;;;;;5096717;28;20169;-68
2023/06/07 01:47:27;;;;;;;17.23;10.10;;;;;;;;;;5078515;28;20181;-69
2023/06/07 01:49:53;;;;;;;15.70;10.13;;;;;;;;;;5097471;28;20173;-69
2023/06/07 01:52:19;;;;;;;17.70;9.07;;;;;;;;;;5078841;28;20193;-69
2023/06/07 01:54:45;;;;;;;18.17;9.90;;;;;;;;;;5097003;28;20177;-69
2023/06/07 01:57:29;;;;;;;16.13;9.83;;;;;;;;;;5097026;28;20169;-68
2023/06/07 02:00:11;;;;;;;18.33;10.13;;;;;;;;;;5078179;28;20177;-69
2023/06/07 02:02:45;;;;;;;23.77;10.60;;;;;;;;;;5097608;28;20297;-68
2023/06/07 02:05:17;;;;;;;23.17;10.30;;;;;;;;;;5098896;28;20177;-68
2023/06/07 02:07:53;;;;;;;21.67;11.27;;;;;;;;;;5097841;28;20169;-69
2023/06/07 02:10:23;;;;;;;20.50;9.83;;;;;;;;;;5097259;28;20161;-69
2023/06/07 02:12:50;;;;;;;17.33;9.23;;;;;;;;;;5097216;28;20288;-69
2023/06/07 02:15:16;;;;;;;15.33;7.63;;;;;;;;;;5096863;28;20597;-69
2023/06/07 02:17:49;;;;;;;23.00;8.87;;;;;;;;;;5077911;28;20271;-69
2023/06/07 02:20:15;;;;;;;13.83;8.37;;;;;;;;;;5096172;28;20212;-69
2023/06/07 02:22:41;;;;;;;15.80;8.57;;;;;;;;;;5096132;28;20188;-68
2023/06/07 02:25:08;;;;;;;17.57;8.53;;;;;;;;;;5096364;28;20181;-69
2023/06/07 02:27:34;;;;;;;23.17;9.23;;;;;;;;;;5096117;28;20191;-68
2023/06/07 02:30:00;;;;;;;20.63;9.43;;;;;;;;;;5095889;28;20546;-69
2023/06/07 02:32:27;;;;;;;21.67;9.30;;;;;;;;;;5095809;28;20193;-69
2023/06/07 02:34:53;;;;;;;17.13;9.10;;;;;;;;;;5077651;28;20184;-68
2023/06/07 02:37:18;;;;;;;15.53;8.77;;;;;;;;;;5077649;28;20173;-69
2023/06/07 02:39:44;;;;;;;17.73;9.43;;;;;;;;;;5096096;28;20177;-68
2023/06/07 02:42:10;;;;;;;12.60;8.70;;;;;;;;;;5095686;28;20220;-69
2023/06/07 02:44:36;;;;;;;16.20;8.43;;;;;;;;;;5077592;28;20234;-68
2023/06/07 02:47:02;;;;;;;16.83;9.00;;;;;;;;;;5095822;28;20261;-68
2023/06/07 02:49:28;;;;;;;17.73;8.53;;;;;;;;;;5096317;28;20188;-68
2023/06/07 02:51:54;;;;;;;13.80;8.47;;;;;;;;;;5076803;28;20201;-68
2023/06/07 02:54:20;;;;;;;17.07;9.43;;;;;;;;;;5077478;28;20675;-68
2023/06/07 02:56:46;;;;;;;16.43;9.27;;;;;;;;;;5095482;28;20174;-69
2023/06/07 02:59:12;;;;;;;11.07;8.80;;;;;;;;;;5095755;28;20535;-68
2023/06/07 03:01:39;;;;;;;21.03;9.60;;;;;;;;;;5112921;28;20213;-69
2023/06/07 03:04:05;;;;;;;17.20;9.17;;;;;;;;;;5093081;28;20181;-68
2023/06/07 03:06:32;;;;;;;16.63;8.37;;;;;;;;;;5091623;28;20183;-69
2023/06/07 03:08:58;;;;;;;16.03;9.10;;;;;;;;;;5112516;28;20173;-69
2023/06/07 03:11:25;;;;;;;17.53;8.57;;;;;;;;;;5096369;28;20197;-69
2023/06/07 03:13:51;;;;;;;12.03;7.73;;;;;;;;;;5095449;28;20278;-68
2023/06/07 03:16:17;;;;;;;16.00;7.70;;;;;;;;;;5095018;28;20181;-68
2023/06/07 03:18:43;;;;;;;12.37;6.70;;;;;;;;;;5094965;28;20223;-68
2023/06/07 03:21:09;;;;;;;15.93;7.73;;;;;;;;;;5094946;28;20197;-68
2023/06/07 03:23:35;;;;;;;13.67;7.80;;;;;;;;;;5076691;28;20658;-68
2023/06/07 03:26:01;;;;;;;12.33;7.27;;;;;;;;;;5095063;28;20165;-68
2023/06/07 03:28:27;;;;;;;14.73;8.40;;;;;;;;;;5094713;28;20218;-69
2023/06/07 03:30:53;;;;;;;17.53;8.03;;;;;;;;;;5076512;28;20184;-69
2023/06/07 03:33:19;;;;;;;14.10;7.63;;;;;;;;;;5076433;28;20205;-68
2023/06/07 03:35:45;;;;;;;14.67;8.17;;;;;;;;;;5094829;28;20229;-68
2023/06/07 03:38:11;;;;;;;14.97;7.63;;;;;;;;;;5094483;28;20267;-69
2023/06/07 03:40:37;;;;;;;12.00;7.93;;;;;;;;;;5094651;28;20197;-68
2023/06/07 03:43:03;;;;;;;15.50;8.40;;;;;;;;;;5094655;28;20585;-69
2023/06/07 03:45:29;;;;;;;14.37;8.33;;;;;;;;;;5094714;28;20169;-69
2023/06/07 03:47:56;;;;;;;14.83;7.77;;;;;;;;;;5094559;28;20180;-68
2023/06/07 03:50:22;;;;;;;16.53;7.90;;;;;;;;;;5094830;28;20178;-68
2023/06/07 03:52:48;;;;;;;11.47;7.63;;;;;;;;;;5094227;28;20711;-69
2023/06/07 03:55:19;;;;;;;13.23;8.43;;;;;;;;;;5076058;28;20246;-69
2023/06/07 03:57:45;;;;;;;16.53;8.00;;;;;;;;;;5094223;28;20244;-70
2023/06/07 04:00:12;;;;;;;12.70;8.17;;;;;;;;;;5093984;28;20279;-69
2023/06/07 04:02:38;;;;;;;20.63;9.10;;;;;;;;;;5093937;28;20266;-69
2023/06/07 04:05:04;;;;;;;19.53;8.63;;;;;;;;;;5074986;28;20708;-68
2023/06/07 04:07:30;;;;;;;12.30;7.63;;;;;;;;;;5093947;28;20176;-69
2023/06/07 04:09:56;;;;;;;13.60;8.27;;;;;;;;;;5093950;28;20610;-69
2023/06/07 04:12:22;;;;;;;13.20;8.20;;;;;;;;;;5075875;28;20242;-68
2023/06/07 04:14:48;;;;;;;14.93;8.23;;;;;;;;;;5093783;28;20593;-69
2023/06/07 04:17:14;;;;;;;13.93;8.23;;;;;;;;;;5093842;28;20181;-68
2023/06/07 04:19:40;;;;;;;18.90;8.73;;;;;;;;;;5094321;28;20184;-68
2023/06/07 04:22:06;;;;;;;17.50;8.80;;;;;;;;;;5093810;28;20236;-69
2023/06/07 04:24:32;;;;;;;12.37;7.93;;;;;;;;;;5075614;28;20204;-69
2023/06/07 04:27:01;;;;;;;14.00;8.57;;;;;;;;;;5093946;28;20595;-69
2023/06/07 04:29:26;;;;;;;16.37;8.80;;;;;;;;;;5075436;28;20271;-69
2023/06/07 04:31:56;;;;;;;14.90;8.20;;;;;;;;;;5094182;28;20228;-70
2023/06/07 04:34:23;;;;;;;13.03;8.17;;;;;;;;;;5094454;28;20177;-69
2023/06/07 04:36:50;;;;;;;13.30;8.33;;;;;;;;;;5094029;28;20173;-69
2023/06/07 04:39:18;;;;;;;16.93;8.83;;;;;;;;;;5075632;28;20185;-68
2023/06/07 04:41:45;;;;;;;14.63;8.53;;;;;;;;;;5075208;28;20225;-68
2023/06/07 04:44:11;;;;;;;12.60;8.27;;;;;;;;;;5093608;28;20630;-69
2023/06/07 04:46:39;;;;;;;13.57;8.63;;;;;;;;;;5093516;28;20200;-69
2023/06/07 04:49:05;;;;;;;15.47;9.20;;;;;;;;;;5093391;28;20173;-69
2023/06/07 04:51:32;;;;;;;16.13;9.90;;;;;;;;;;5093309;28;20201;-69
2023/06/07 04:54:01;;;;;;;14.07;9.70;;;;;;;;;;5093412;28;20230;-68
2023/06/07 04:56:27;;;;;;;17.27;10.13;;;;;;;;;;5093362;28;20212;-67
2023/06/07 04:58:53;;;;;;;19.93;10.23;;;;;;;;;;5075123;28;20185;-68
2023/06/07 05:01:19;;;;;;;15.57;10.33;;;;;;;;;;5093235;28;20226;-69
2023/06/07 05:03:45;;;;;;;16.77;9.30;;;;;;;;;;5093280;28;20173;-68
2023/06/07 05:06:11;;;;;;;16.07;10.13;;;;;;;;;;5074962;28;20177;-68
2023/06/07 05:08:37;;;;;;;15.33;9.90;;;;;;;;;;5075459;28;20218;-68
2023/06/07 05:11:03;;;;;;;26.40;11.83;;;;;;;;;;5074991;28;20654;-68
2023/06/07 05:13:29;;;;;;;20.80;11.20;;;;;;;;;;5093149;28;20659;-68
2023/06/07 05:15:55;;;;;;;18.17;10.70;;;;;;;;;;5095603;28;20735;-68
2023/06/07 05:18:21;;;;;;;19.47;10.63;;;;;;;;;;5079173;28;20177;-68
2023/06/07 05:20:47;;;;;;;28.07;10.37;;;;;;;;;;5097215;28;20196;-68
2023/06/07 05:23:16;;;;;;;18.40;9.80;;;;;;;;;;5097114;28;20188;-67
2023/06/07 05:25:46;;;;;;;16.60;10.53;;;;;;;;;;5079007;28;20270;-68
2023/06/07 05:28:12;;;;;;;23.93;11.27;;;;;;;;;;5097097;28;20655;-68
2023/06/07 05:30:39;;;;;;;20.77;10.03;;;;;;;;;;5079034;28;20189;-68
2023/06/07 05:33:05;;;;;;;20.80;10.33;;;;;;;;;;5097056;28;20625;-68
2023/06/07 05:35:31;;;;;;;20.97;9.80;;;;;;;;;;5079005;28;20183;-67
2023/06/07 05:37:57;;;;;;;16.70;9.43;;;;;;;;;;5078918;28;20268;-69
2023/06/07 05:40:23;;;;;;;15.50;8.93;;;;;;;;;;5097219;28;20197;-68
2023/06/07 05:42:50;;;;;;;12.80;9.00;;;;;;;;;;5078579;28;20223;-69
2023/06/07 05:45:16;;;;;;;18.37;9.37;;;;;;;;;;5118441;22;20241;-65
2023/06/07 05:47:43;;;;;;;22.43;9.73;;;;;;;;;;5096624;28;20656;-65
2023/06/07 05:50:10;;;;;;;15.47;8.73;;;;;;;;;;5096777;28;20169;-65
2023/06/07 05:52:37;;;;;;;17.33;9.80;;;;;;;;;;5078467;28;20674;-65
2023/06/07 05:55:03;;;;;;;12.47;8.93;;;;;;;;;;5096597;28;20278;-65
2023/06/07 05:57:29;;;;;;;16.60;9.10;;;;;;;;;;5078322;28;20181;-65
2023/06/07 05:59:56;;;;;;;17.23;9.83;;;;;;;;;;5096381;28;20230;-65
2023/06/07 06:02:23;;;;;;;15.07;9.57;;;;;;;;;;5078313;28;20222;-66
2023/06/07 06:04:51;;;;;;;15.27;10.17;;;;;;;;;;5096647;28;20678;-65
2023/06/07 06:07:17;;;;;;;17.53;10.73;;;;;;;;;;5096368;28;20539;-65
2023/06/07 06:09:44;;;;;;;23.30;11.83;;;;;;;;;;5096359;28;20180;-65
2023/06/07 06:12:10;;;;;;;16.20;10.67;;;;;;;;;;5078068;28;20173;-65
2023/06/07 06:14:37;;;;;;;25.53;10.37;;;;;;;;;;5096098;28;20257;-65
2023/06/07 06:17:02;;;;;;;15.90;9.70;;;;;;;;;;5096557;28;20196;-65
2023/06/07 06:19:28;;;;;;;21.20;10.37;;;;;;;;;;5078651;28;20173;-65
2023/06/07 06:21:55;;;;;;;16.37;9.00;;;;;;;;;;5098012;28;20670;-65
2023/06/07 06:24:20;;;;;;;18.90;9.33;;;;;;;;;;5078290;28;20237;-65
2023/06/07 06:26:46;;;;;;;25.50;10.53;;;;;;;;;;5095559;28;20173;-65
2023/06/07 06:29:12;;;;;;;14.30;9.80;;;;;;;;;;5096172;28;20173;-65
2023/06/07 06:31:40;;;;;;;15.53;10.30;;;;;;;;;;5096290;28;20634;-66
2023/06/07 06:34:07;;;;;;;17.87;9.93;;;;;;;;;;5096170;28;20173;-65
2023/06/07 06:36:34;;;;;;;15.97;9.80;;;;;;;;;;5078134;28;20204;-65
2023/06/07 06:39:00;;;;;;;16.60;9.83;;;;;;;;;;5096306;28;20173;-65
2023/06/07 06:41:26;;;;;;;20.67;11.50;;;;;;;;;;5078072;28;20216;-65
2023/06/07 06:43:52;;;;;;;18.80;11.33;;;;;;;;;;5096410;28;20177;-65
2023/06/07 06:46:18;;;;;;;17.00;10.30;;;;;;;;;;5077810;28;20303;-65
2023/06/07 06:48:44;;;;;;;16.27;10.37;;;;;;;;;;5095913;28;20177;-65
2023/06/07 06:51:09;;;;;;;16.73;10.70;;;;;;;;;;5077988;28;20177;-65
2023/06/07 06:53:35;;;;;;;11.93;10.17;;;;;;;;;;5095971;28;20558;-65
2023/06/07 06:56:02;;;;;;;16.10;11.07;;;;;;;;;;5095860;28;20570;-65
2023/06/07 06:58:28;;;;;;;15.40;10.63;;;;;;;;;;5096047;28;20177;-66
2023/06/07 07:00:54;;;;;;;19.37;11.30;;;;;;;;;;5077893;28;20205;-65
2023/06/07 07:03:21;;;;;;;16.30;10.80;;;;;;;;;;5077546;28;20178;-65
2023/06/07 07:05:46;;;;;;;24.07;11.07;;;;;;;;;;5096053;28;20196;-65
2023/06/07 07:08:13;;;;;;;26.50;12.33;;;;;;;;;;5095855;28;20173;-64
2023/06/07 07:10:39;;;;;;;22.53;12.87;;;;;;;;;;5077789;28;20181;-64
2023/06/07 07:13:05;;;;;;;21.27;12.90;;;;;;;;;;5077084;28;20664;-63
2023/06/07 07:15:31;;;;;;;17.07;11.13;;;;;;;;;;5095762;28;20201;-65
2023/06/07 07:17:56;;;;;;;22.57;13.00;;;;;;;;;;5095743;28;20181;-65
2023/06/07 07:20:23;;;;;;;20.00;12.50;;;;;;;;;;5077344;28;20618;-64
2023/06/07 07:22:49;;;;;;;29.90;12.37;;;;;;;;;;5077282;28;20233;-66
2023/06/07 07:25:15;;;;;;;18.43;11.03;;;;;;;;;;5096025;28;20197;-65
2023/06/07 07:27:41;;;;;;;19.30;11.87;;;;;;;;;;5095627;28;20173;-65
2023/06/07 07:30:09;;;;;;;27.30;11.97;;;;;;;;;;5077269;28;20188;-65
2023/06/07 07:32:35;;;;;;;20.07;12.03;;;;;;;;;;5077151;28;20639;-65
2023/06/07 07:35:02;;;;;;;14.83;10.97;;;;;;;;;;5096066;28;20197;-64
2023/06/07 07:37:28;;;;;;;17.43;11.93;;;;;;;;;;5077988;28;20180;-65
2023/06/07 07:39:54;;;;;;;15.50;10.97;;;;;;;;;;5095586;28;20173;-65
2023/06/07 07:42:20;;;;;;;17.50;12.27;;;;;;;;;;5095053;28;20238;-65
2023/06/07 07:44:47;;;;;;;15.97;11.50;;;;;;;;;;5094830;28;20225;-65
2023/06/07 07:47:13;;;;;;;21.07;11.93;;;;;;;;;;5076645;28;20252;-65
2023/06/07 07:49:39;;;;;;;18.77;11.60;;;;;;;;;;5095215;28;20196;-66
2023/06/07 07:52:05;;;;;;;16.10;11.27;;;;;;;;;;5094942;28;20545;-66
2023/06/07 07:54:31;;;;;;;20.17;10.97;;;;;;;;;;5095056;28;20201;-66
2023/06/07 07:56:57;;;;;;;18.43;11.80;;;;;;;;;;5095309;28;20630;-66
2023/06/07 07:59:23;;;;;;;21.00;13.00;;;;;;;;;;5095069;28;20550;-65
2023/06/07 08:01:49;;;;;;;17.93;12.03;;;;;;;;;;5076707;28;20234;-67
2023/06/07 08:04:15;;;;;;;21.30;12.03;;;;;;;;;;5095046;28;20222;-65
2023/06/07 08:06:42;;;;;;;19.47;11.80;;;;;;;;;;5076735;28;20665;-65
2023/06/07 08:09:09;;;;;;;20.63;13.50;;;;;;;;;;5094849;28;20264;-65
2023/06/07 08:11:35;;;;;;;21.87;11.47;;;;;;;;;;5076662;28;20181;-65
2023/06/07 08:14:01;;;;;;;20.90;11.50;;;;;;;;;;5076469;28;20180;-66
2023/06/07 08:16:27;;;;;;;16.57;12.30;;;;;;;;;;5078758;28;20680;-65
2023/06/07 08:18:57;;;;;;;18.70;12.07;;;;;;;;;;5096881;28;20180;-65
2023/06/07 08:21:23;;;;;;;17.53;11.97;;;;;;;;;;5077975;28;20227;-65
2023/06/07 08:23:49;;;;;;;18.93;12.87;;;;;;;;;;5095699;28;20185;-65
2023/06/07 08:26:18;;;;;;;22.50;13.00;;;;;;;;;;5076744;28;20196;-65
2023/06/07 08:28:44;;;;;;;20.87;12.63;;;;;;;;;;5076010;28;20593;-65
2023/06/07 08:31:11;;;;;;;26.27;14.43;;;;;;;;;;5094674;28;20173;-66
2023/06/07 08:33:37;;;;;;;26.73;14.90;;;;;;;;;;5094618;28;20204;-65
2023/06/07 08:36:03;;;;;;;25.77;15.30;;;;;;;;;;5075820;28;20209;-65
2023/06/07 08:38:29;;;;;;;27.00;15.37;;;;;;;;;;5093967;28;20204;-66
2023/06/07 08:40:56;;;;;;;22.93;15.43;;;;;;;;;;5076670;28;20231;-66
2023/06/07 08:43:22;;;;;;;26.67;15.30;;;;;;;;;;5094572;28;20177;-65
2023/06/07 08:45:50;;;;;;;29.13;15.47;;;;;;;;;;5094200;28;20248;-66
2023/06/07 08:48:16;;;;;;;26.30;15.77;;;;;;;;;;5094815;28;20181;-66
2023/06/07 08:50:45;;;;;;;28.13;16.03;;;;;;;;;;5093641;28;20173;-66
2023/06/07 08:53:14;;;;;;;27.70;16.33;;;;;;;;;;5076195;28;20647;-66
2023/06/07 08:55:41;;;;;;;25.90;17.90;;;;;;;;;;5094993;28;20564;-66
2023/06/07 08:58:08;;;;;;;25.93;17.20;;;;;;;;;;5094433;28;20185;-66
2023/06/07 09:00:35;;;;;;;28.50;18.57;;;;;;;;;;5076030;28;20205;-66
2023/06/07 09:03:01;;;;;;;33.87;18.33;;;;;;;;;;5076228;28;20177;-66
2023/06/07 09:05:27;;;;;;;28.10;18.33;;;;;;;;;;5093985;28;20250;-66
2023/06/07 09:07:53;;;;;;;29.57;18.00;;;;;;;;;;5093895;28;20540;-66
2023/06/07 09:10:19;;;;;;;24.23;17.67;;;;;;;;;;5094239;28;20302;-66
2023/06/07 09:12:48;;;;;;;24.63;16.73;;;;;;;;;;5094751;28;20663;-67
2023/06/07 09:15:17;;;;;;;31.73;19.07;;;;;;;;;;5094490;28;20685;-66
2023/06/07 09:17:56;;;;;;;23.00;17.00;;;;;;;;;;5094293;28;20604;-66
2023/06/07 09:20:23;;;;;;;26.80;17.97;;;;;;;;;;5076346;28;20219;-66
2023/06/07 09:23:02;;;;;;;27.27;17.70;;;;;;;;;;5076496;28;20181;-66
2023/06/07 09:25:30;;;;;;;29.67;18.60;;;;;;;;;;5076530;28;20199;-66
2023/06/07 09:27:56;;;;;;;27.90;18.43;;;;;;;;;;5094308;28;20264;-67
2023/06/07 09:30:22;;;;;;;26.27;18.83;;;;;;;;;;5094245;28;20192;-66
2023/06/07 09:32:48;;;;;;;26.17;17.57;;;;;;;;;;5094199;28;20264;-66
2023/06/07 09:35:21;;;;;;;29.07;19.27;;;;;;;;;;5094091;28;20228;-66
2023/06/07 09:37:47;;;;;;;27.07;19.07;;;;;;;;;;5075596;28;20177;-66
2023/06/07 09:40:16;;;;;;;35.30;19.60;;;;;;;;;;5075571;28;20177;-66
2023/06/07 09:42:43;;;;;;;30.30;19.53;;;;;;;;;;5077902;28;20188;-67
2023/06/07 09:45:10;;;;;;;30.03;21.30;;;;;;;;;;5094897;28;20246;-66
2023/06/07 09:47:36;;;;;;;33.97;21.67;;;;;;;;;;5076250;28;20177;-66
2023/06/07 09:50:06;;;;;;;33.20;21.77;;;;;;;;;;5076034;28;20181;-66
2023/06/07 09:52:32;;;;;;;31.97;22.80;;;;;;;;;;5093740;28;20260;-68
2023/06/07 09:54:58;;;;;;;29.10;21.37;;;;;;;;;;5094687;28;20278;-66
2023/06/07 09:57:24;;;;;;;31.77;19.27;;;;;;;;;;5075980;28;20181;-66
2023/06/07 10:00:01;;;;;;;24.80;19.83;;;;;;;;;;5076059;28;20264;-66
2023/06/07 10:02:28;;;;;;;29.27;19.87;;;;;;;;;;5096946;28;20259;-66
2023/06/07 10:04:56;;;;;;;28.90;20.20;;;;;;;;;;5097957;28;20667;-67
2023/06/07 10:07:23;;;;;;;35.47;19.87;;;;;;;;;;5079517;28;20178;-67
2023/06/07 10:09:51;;;;;;;29.17;20.53;;;;;;;;;;5079610;28;20201;-66
2023/06/07 10:12:19;;;;;;;28.23;21.23;;;;;;;;;;5098012;28;20177;-66
2023/06/07 10:14:45;;;;;;;36.40;21.57;;;;;;;;;;5098041;28;20678;-66
2023/06/07 10:17:13;;;;;;;31.13;22.73;;;;;;;;;;5079254;28;20180;-66
2023/06/07 10:19:42;;;;;;;30.27;23.10;;;;;;;;;;5097408;28;20210;-66
2023/06/07 10:22:16;;;;;;;35.47;23.23;;;;;;;;;;5079071;28;20581;-67
2023/06/07 10:24:47;;;;;;;32.50;22.87;;;;;;;;;;5098100;28;20189;-66
2023/06/07 10:27:18;;;;;;;29.17;21.60;;;;;;;;;;5098047;28;20161;-66
2023/06/07 10:30:10;;;;;;;31.60;20.93;;;;;;;;;;5097075;28;20176;-66
2023/06/07 10:32:38;;;;;;;23.93;20.50;;;;;;;;;;5096338;28;20621;-66
2023/06/07 10:35:07;;;;;;;26.00;19.40;;;;;;;;;;5082011;28;20201;-67
2023/06/07 10:37:35;;;;;;;27.73;19.90;;;;;;;;;;5100090;28;20234;-66
2023/06/07 10:40:10;;;;;;;25.50;17.87;;;;;;;;;;5081814;28;20201;-66
2023/06/07 10:42:41;;;;;;;27.00;18.70;;;;;;;;;;5100791;28;20164;-66
2023/06/07 10:45:11;;;;;;;27.67;19.17;;;;;;;;;;5082164;28;20213;-66
2023/06/07 10:47:37;;;;;;;22.77;17.97;;;;;;;;;;5079108;28;20594;-67
2023/06/07 10:50:03;;;;;;;28.00;18.33;;;;;;;;;;5078641;28;20199;-66
2023/06/07 10:52:29;;;;;;;27.97;18.87;;;;;;;;;;5079177;28;20181;-66
2023/06/07 10:54:56;;;;;;;26.57;17.77;;;;;;;;;;5097162;28;20200;-66
2023/06/07 10:57:31;;;;;;;25.43;17.90;;;;;;;;;;5096596;28;20177;-66
2023/06/07 11:00:17;;;;;;;28.00;17.33;;;;;;;;;;5078508;28;20207;-67
2023/06/07 11:02:43;;;;;;;21.33;16.50;;;;;;;;;;5078248;28;20641;-66
2023/06/07 11:05:10;;;;;;;24.87;17.13;;;;;;;;;;5096778;28;20322;-66
2023/06/07 11:07:41;;;;;;;22.97;18.23;;;;;;;;;;5078315;28;20176;-67
2023/06/07 11:10:07;;;;;;;22.60;17.50;;;;;;;;;;5096327;28;20164;-67
2023/06/07 11:12:40;;;;;;;23.47;17.20;;;;;;;;;;5094939;28;20174;-67
2023/06/07 11:15:22;;;;;;;24.30;17.27;;;;;;;;;;5077659;28;20575;-66
2023/06/07 11:17:54;;;;;;;25.77;17.37;;;;;;;;;;5077553;28;20181;-66
2023/06/07 11:20:38;;;;;;;25.07;18.30;;;;;;;;;;5077497;28;20173;-66
2023/06/07 11:23:23;;;;;;;22.40;17.63;;;;;;;;;;5095876;28;20190;-67
2023/06/07 11:25:51;;;;;;;22.10;18.13;;;;;;;;;;5077961;28;20197;-66
2023/06/07 11:28:21;;;;;;;28.97;19.33;;;;;;;;;;5095999;28;20170;-67
2023/06/07 11:30:47;;;;;;;28.27;19.27;;;;;;;;;;5077604;28;20177;-66
2023/06/07 11:33:16;;;;;;;25.10;17.97;;;;;;;;;;5078466;28;20181;-67
2023/06/07 11:35:43;;;;;;;27.00;18.87;;;;;;;;;;5097320;28;20747;-67
2023/06/07 11:38:09;;;;;;;24.53;18.10;;;;;;;;;;5080991;28;20185;-67
2023/06/07 11:40:36;;;;;;;23.50;17.73;;;;;;;;;;5083501;28;20208;-67
2023/06/07 11:43:02;;;;;;;24.40;17.23;;;;;;;;;;5083450;28;20174;-67
2023/06/07 11:45:29;;;;;;;23.20;17.50;;;;;;;;;;5101045;28;20268;-67
2023/06/07 11:48:00;;;;;;;25.20;17.47;;;;;;;;;;5103264;28;20188;-67
2023/06/07 11:50:26;;;;;;;23.33;16.27;;;;;;;;;;5101409;28;20193;-67
2023/06/07 11:52:53;;;;;;;23.93;15.87;;;;;;;;;;5097979;22;20305;-69
2023/06/07 11:55:19;;;;;;;19.97;15.57;;;;;;;;;;5076189;28;20177;-69
2023/06/07 11:57:48;;;;;;;19.20;14.80;;;;;;;;;;5076200;28;20181;-70
2023/06/07 12:00:16;;;;;;;19.77;14.60;;;;;;;;;;5076208;28;20184;-69
2023/06/07 12:02:43;;;;;;;19.47;15.30;;;;;;;;;;5094355;28;20196;-70
2023/06/07 12:05:09;;;;;;;23.53;14.80;;;;;;;;;;5076111;28;20641;-70
2023/06/07 12:07:36;;;;;;;21.63;15.10;;;;;;;;;;5094695;28;20210;-70
2023/06/07 12:10:02;;;;;;;21.77;14.10;;;;;;;;;;5094842;28;20170;-70
2023/06/07 12:12:28;;;;;;;21.47;13.97;;;;;;;;;;5094441;28;20312;-71
2023/06/07 12:15:01;;;;;;;22.03;14.00;;;;;;;;;;5094338;28;20613;-70
2023/06/07 12:17:36;;;;;;;17.13;12.90;;;;;;;;;;5094057;28;20549;-69
2023/06/07 12:20:09;;;;;;;17.07;13.77;;;;;;;;;;5076796;28;20189;-70
2023/06/07 12:22:35;;;;;;;23.33;14.67;;;;;;;;;;5097025;28;20209;-70
2023/06/07 12:25:01;;;;;;;;;;;;;;;;;;5078388;28;20566;-70
2023/06/07 12:27:27;;;;;;;;;;;;;;;;;;5095019;28;19943;-70
2023/06/07 12:29:53;;;;;;;;;;;;;;;;;;5095106;28;20289;-69
2023/06/07 12:32:19;;;;;;;;;;;;;;;;;;5095032;28;19904;-70
2023/06/07 12:34:44;;;;;;;;;;;;;;;;;;5076960;28;19904;-70
2023/06/07 12:37:10;;;;;;;;;;;;;;;;;;5077679;28;20365;-70
2023/06/07 12:39:36;;;;;;;;;;;;;;;;;;5077180;28;19904;-70
2023/06/07 12:42:02;;;;;;;;;;;;;;;;;;5094692;28;20396;-70
2023/06/07 12:44:28;;;;;;;;;;;;;;;;;;5094707;28;19973;-70
2023/06/07 12:46:54;;;;;;;;;;;;;;;;;;5076392;28;20002;-70
2023/06/07 12:49:20;;;;;;;;;;;;;;;;;;5076258;28;20370;-70
2023/06/07 12:51:46;;;;;;;;;;;;;;;;;;5094137;28;19904;-70
2023/06/07 12:54:13;;;;;;;;;;;;;;;;;;5094592;28;19957;-70
2023/06/07 12:56:39;;;;;;;;;;;;;;;;;;5078357;28;20411;-70
2023/06/07 12:59:05;;;;;;;;;;;;;;;;;;5078316;28;19962;-69
2023/06/07 13:01:31;;;;;;;;;;;;;;;;;;5078381;28;19915;-70
2023/06/07 13:03:57;;;;;;;;;;;;;;;;;;5078249;28;19994;-70
2023/06/07 13:06:23;;;;;;;;;;;;;;;;;;5094266;28;19904;-69
2023/06/07 13:08:49;;;;;;;;;;;;;;;;;;5076039;28;19994;-70
2023/06/07 13:11:15;;;;;;;;;;;;;;;;;;5075663;28;19904;-69
2023/06/07 13:13:41;;;;;;;;;;;;;;;;;;5077053;28;19953;-71
2023/06/07 13:16:07;;;;;;;;;;;;;;;;;;5075648;28;19904;-70
2023/06/07 13:18:38;;;;;;;;;;;;;;;;;;5093726;28;19904;-70
2023/06/07 13:21:04;;;;;;;;;;;;;;;;;;5093930;28;19908;-71
2023/06/07 13:23:30;;;;;;;;;;;;;;;;;;5093645;28;19904;-70
2023/06/07 13:25:56;;;;;;;;;;;;;;;;;;5075665;28;19926;-71
2023/06/07 13:28:22;;;;;;;;;;;;;;;;;;5093689;28;19904;-70
2023/06/07 13:30:48;;;;;;;;;;;;;;;;;;5093984;28;20289;-71
2023/06/07 13:33:14;;;;;;;;;;;;;;;;;;5075449;28;19904;-70
2023/06/07 13:35:39;;;;;;;;;;;;;;;;;;5075374;28;19904;-70
2023/06/07 13:38:05;;;;;;;;;;;;;;;;;;5079248;28;19915;-70
2023/06/07 13:40:31;;;;;;;;;;;;;;;;;;5097461;28;19918;-70
2023/06/07 13:42:57;;;;;;;;;;;;;;;;;;5079223;28;20358;-71
2023/06/07 13:45:23;;;;;;;;;;;;;;;;;;5079273;28;19994;-71
2023/06/07 13:47:49;;;;;;;;;;;;;;;;;;5097799;28;19908;-70
2023/06/07 13:50:15;;;;;;;;;;;;;;;;;;5097370;28;20011;-70
2023/06/07 13:52:41;;;;;;;;;;;;;;;;;;5078772;28;19956;-70
2023/06/07 13:55:08;;;;;;;;;;;;;;;;;;5078955;28;19904;-70
2023/06/07 13:57:36;;;;;;;;;;;;;;;;;;5078864;28;19911;-69
2023/06/07 14:00:03;;;;;;;;;;;;;;;;;;5078985;28;19958;-69
2023/06/07 14:02:29;;;;;;;;;;;;;;;;;;5078599;28;19951;-69
2023/06/07 14:04:54;;;;;;;;;;;;;;;;;;5079014;28;19904;-69
2023/06/07 14:07:21;;;;;;;;;;;;;;;;;;5097068;28;19918;-69
2023/06/07 14:09:47;;;;;;;;;;;;;;;;;;5078636;28;19904;-69
2023/06/07 14:12:13;;;;;;;;;;;;;;;;;;5097012;28;19911;-69
2023/06/07 14:14:39;;;;;;;;;;;;;;;;;;5078594;28;19904;-69
2023/06/07 14:17:05;;;;;;;;;;;;;;;;;;5096920;28;20394;-70
2023/06/07 14:19:31;;;;;;;;;;;;;;;;;;5097272;28;19904;-69
2023/06/07 14:21:57;;;;;;;;;;;;;;;;;;5096840;28;20060;-70
2023/06/07 14:24:23;;;;;;;;;;;;;;;;;;5078553;28;19953;-69
2023/06/07 14:26:49;;;;;;;;;;;;;;;;;;5078233;28;19922;-69
2023/06/07 14:29:15;;;;;;;;;;;;;;;;;;5078163;28;19946;-68
2023/06/07 14:31:40;;;;;;;;;;;;;;;;;;5096399;28;19900;-70
2023/06/07 14:34:06;;;;;;;;;;;;;;;;;;5096303;28;19911;-70
2023/06/07 14:36:32;;;;;;;;;;;;;;;;;;5096308;28;19900;-70
2023/06/07 14:38:59;;;;;;;;;;;;;;;;;;5096319;28;19910;-70
2023/06/07 14:41:26;;;;;;;;;;;;;;;;;;5078206;28;19919;-70
2023/06/07 14:43:52;;;;;;;;;;;;;;;;;;5078083;28;19946;-69